createdAt,value
2023-02-03T11:49:48.036Z,11.50
2023-02-03T11:53:02.072Z,11.40
2023-02-03T11:55:45.132Z,11.40
2023-02-03T11:58:30.639Z,11.30
2023-02-03T12:01:03.438Z,11.20
2023-02-03T12:03:49.116Z,11.10
2023-02-03T12:06:29.684Z,11.10
2023-02-03T12:09:33.148Z,11.00
2023-02-03T12:12:33.833Z,11.00
2023-02-03T12:15:18.487Z,10.90
2023-02-03T12:18:09.557Z,11.10
2023-02-03T12:21:00.257Z,11.20
2023-02-03T12:23:51.631Z,11.20
2023-02-03T12:26:25.216Z,11.30
2023-02-03T12:29:19.795Z,11.30
2023-02-03T12:32:04.228Z,11.40
2023-02-03T12:34:39.247Z,11.40
2023-02-03T12:37:12.742Z,11.40
2023-02-03T12:40:04.891Z,11.40
2023-02-03T12:42:38.786Z,11.30
2023-02-03T12:45:13.265Z,11.40
2023-02-03T12:47:50.573Z,11.50
2023-02-03T12:50:21.646Z,11.50
2023-02-03T12:52:56.095Z,11.60
2023-02-03T12:55:22.874Z,11.50
2023-02-03T12:58:00.208Z,11.50
2023-02-03T13:00:47.803Z,11.70
2023-02-03T13:03:24.279Z,11.80
2023-02-03T13:06:11.902Z,11.90
2023-02-03T13:08:51.577Z,11.90
2023-02-03T13:11:52.052Z,11.70
2023-02-03T13:14:28.220Z,11.80
2023-02-03T13:17:01.659Z,11.90
2023-02-03T13:19:40.270Z,12.00
2023-02-03T13:22:15.178Z,11.90
2023-02-03T13:24:46.636Z,11.80
2023-02-03T13:27:49.947Z,11.80
2023-02-03T13:30:46.099Z,11.80
2023-02-03T13:33:40.408Z,11.80
2023-02-03T13:36:38.517Z,12.00
2023-02-03T13:39:24.390Z,12.00
2023-02-03T13:41:55.373Z,12.10
2023-02-03T13:44:29.421Z,12.10
2023-02-03T13:47:00.295Z,12.00
2023-02-03T13:49:33.654Z,12.00
2023-02-03T13:52:00.948Z,12.00
2023-02-03T13:54:35.939Z,11.90
2023-02-03T13:57:05.741Z,11.90
2023-02-03T13:59:38.754Z,12.00
2023-02-03T14:02:24.390Z,12.10
2023-02-03T14:04:56.853Z,12.10
2023-02-03T14:07:35.255Z,12.20
2023-02-03T14:10:20.238Z,12.20
2023-02-03T14:12:49.757Z,12.30
2023-02-03T14:15:21.847Z,12.20
2023-02-03T14:17:48.596Z,12.30
2023-02-03T14:20:27.507Z,12.30
2023-02-03T14:23:06.279Z,12.20
2023-02-03T14:25:40.985Z,12.20
2023-02-03T14:28:11.389Z,12.30
2023-02-03T14:31:03.045Z,12.30
2023-02-03T14:33:58.686Z,12.30
2023-02-03T14:36:35.155Z,12.30
2023-02-03T14:39:20.012Z,12.30
2023-02-03T14:41:52.781Z,12.40
2023-02-03T14:44:28.722Z,12.40
2023-02-03T14:47:32.313Z,12.40
2023-02-03T14:50:22.492Z,12.40
2023-02-03T14:53:28.345Z,12.40
2023-02-03T14:55:58.366Z,12.50
2023-02-03T14:58:31.150Z,12.50
2023-02-03T15:00:59.109Z,12.50
2023-02-03T15:03:30.124Z,12.40
2023-02-03T15:06:06.133Z,12.40
2023-02-03T15:08:42.989Z,12.40
2023-02-03T15:11:27.048Z,12.30
2023-02-03T15:13:55.944Z,12.40
2023-02-03T15:16:24.595Z,12.30
2023-02-03T15:19:07.310Z,12.20
2023-02-03T15:21:42.397Z,12.20
2023-02-03T15:24:19.584Z,12.20
2023-02-03T15:26:48.685Z,12.20
2023-02-03T15:29:28.889Z,12.20
2023-02-03T15:32:05.499Z,12.20
2023-02-03T15:34:41.724Z,12.20
2023-02-03T15:37:34.146Z,12.20
2023-02-03T15:40:09.701Z,12.10
2023-02-03T15:42:43.254Z,12.10
2023-02-03T15:45:31.729Z,12.10
2023-02-03T15:48:17.445Z,12.10
2023-02-03T15:50:53.238Z,12.10
2023-02-03T15:53:45.344Z,12.00
2023-02-03T15:56:23.259Z,12.00
2023-02-03T15:58:50.616Z,11.90
2023-02-03T16:01:23.399Z,11.90
2023-02-03T16:03:53.048Z,11.80
2023-02-03T16:06:30.437Z,11.70
2023-02-03T16:08:59.581Z,11.80
2023-02-03T16:11:37.384Z,11.80
2023-02-03T16:14:10.699Z,11.70
2023-02-03T16:16:47.179Z,11.60
2023-02-03T16:19:23.519Z,11.50
2023-02-03T16:21:50.294Z,11.50
2023-02-03T16:24:42.562Z,11.50
2023-02-03T16:27:27.407Z,11.50
2023-02-03T16:30:33.151Z,11.50
2023-02-03T16:33:27.463Z,11.40
2023-02-03T16:36:17.193Z,11.30
2023-02-03T16:39:06.952Z,11.20
2023-02-03T16:41:54.332Z,11.10
2023-02-03T16:44:42.067Z,11.20
2023-02-03T16:47:45.488Z,11.10
2023-02-03T16:50:38.724Z,11.00
2023-02-03T16:53:11.223Z,10.90
2023-02-03T16:55:38.037Z,10.80
2023-02-03T16:58:04.831Z,10.70
2023-02-03T17:00:34.668Z,10.50
2023-02-03T17:03:04.768Z,10.40
2023-02-03T17:05:32.013Z,10.40
2023-02-03T17:07:58.966Z,10.60
2023-02-03T17:10:28.539Z,10.50
2023-02-03T17:12:55.312Z,10.50
2023-02-03T17:15:22.106Z,10.60
2023-02-03T17:17:48.863Z,10.70
2023-02-03T17:20:15.904Z,10.60
2023-02-03T17:22:42.661Z,10.60
2023-02-03T17:25:09.640Z,10.60
2023-02-03T17:27:36.537Z,10.50
2023-02-03T17:30:04.377Z,10.40
2023-02-03T17:32:31.309Z,10.30
2023-02-03T17:35:00.547Z,10.30
2023-02-03T17:37:27.483Z,10.40
2023-02-03T17:53:40.166Z,9.90
2023-02-03T17:56:12.556Z,10.00
2023-02-03T17:58:41.152Z,9.80
2023-02-03T18:01:19.699Z,9.80
2023-02-03T18:03:48.481Z,9.90
2023-02-03T18:06:18.075Z,9.80
2023-02-03T18:08:45.794Z,9.80
2023-02-03T18:11:13.838Z,9.60
2023-02-03T18:13:43.228Z,9.40
2023-02-03T18:16:15.282Z,9.40
2023-02-03T18:18:43.556Z,9.40
2023-02-03T18:21:12.895Z,9.50
2023-02-03T18:23:40.522Z,9.30
2023-02-03T18:26:09.788Z,9.50
2023-02-03T18:28:37.976Z,9.80
2023-02-03T18:31:10.100Z,9.50
2023-02-03T18:33:38.031Z,9.80
2023-02-03T18:36:05.845Z,10.10
2023-02-03T18:38:34.508Z,9.90
2023-02-03T18:41:09.734Z,9.50
2023-02-03T18:43:36.548Z,9.70
2023-02-03T18:46:09.607Z,10.20
2023-02-03T18:48:36.831Z,10.10
2023-02-03T18:51:07.341Z,10.10
2023-02-03T18:53:34.094Z,9.90
2023-02-03T18:56:00.909Z,9.70
2023-02-03T18:58:28.302Z,9.50
2023-02-03T19:00:59.032Z,9.40
2023-02-03T19:03:26.777Z,9.30
2023-02-03T19:05:54.307Z,9.30
2023-02-03T19:08:21.130Z,9.30
2023-02-03T19:10:51.931Z,9.20
2023-02-03T19:13:19.909Z,9.20
2023-02-03T19:15:49.273Z,9.10
2023-02-03T19:18:16.574Z,9.10
2023-02-03T19:20:44.282Z,8.90
2023-02-03T19:23:14.609Z,8.90
2023-02-03T19:25:41.499Z,8.80
2023-02-03T19:28:17.369Z,8.80
2023-02-03T19:30:45.006Z,8.80
2023-02-03T19:33:12.405Z,8.80
2023-02-03T19:35:39.468Z,8.70
2023-02-03T19:38:06.271Z,8.80
2023-02-03T19:40:33.442Z,8.90
2023-02-03T19:43:00.560Z,9.00
2023-02-03T19:45:27.553Z,8.90
2023-02-03T19:47:54.300Z,9.00
2023-02-03T19:50:21.077Z,8.80
2023-02-03T19:52:49.149Z,8.80
2023-02-03T19:55:18.724Z,8.90
2023-02-03T19:57:45.543Z,8.80
2023-02-03T20:00:13.412Z,8.80
2023-02-03T20:02:43.768Z,8.90
2023-02-03T20:05:11.080Z,8.90
2023-02-03T20:07:38.030Z,8.90
2023-02-03T20:10:05.057Z,8.90
2023-02-03T20:12:32.191Z,8.80
2023-02-03T20:15:01.361Z,8.80
2023-02-03T20:17:29.006Z,8.90
2023-02-03T20:19:56.096Z,9.20
2023-02-03T20:22:23.099Z,9.90
2023-02-03T20:24:49.925Z,9.60
2023-02-03T20:27:17.905Z,9.50
2023-02-03T20:29:44.946Z,9.40
2023-02-03T20:32:11.965Z,9.30
2023-02-03T20:34:39.568Z,9.30
2023-02-03T20:37:08.020Z,9.30
2023-02-03T20:39:35.238Z,9.20
2023-02-03T20:42:02.131Z,9.10
2023-02-03T20:44:28.953Z,9.10
2023-02-03T20:46:56.026Z,9.10
2023-02-03T20:49:22.886Z,9.20
2023-02-03T20:51:49.695Z,9.30
2023-02-03T20:54:21.620Z,9.40
2023-02-03T20:56:48.865Z,9.50
2023-02-03T20:59:19.924Z,9.40
2023-02-03T21:01:47.270Z,9.50
2023-02-03T21:04:34.146Z,9.50
2023-02-03T21:07:06.574Z,9.30
2023-02-03T21:09:33.325Z,9.20
2023-02-03T21:12:01.497Z,9.30
2023-02-03T21:14:38.589Z,9.30
2023-02-03T21:17:15.692Z,9.00
2023-02-03T21:19:42.626Z,8.80
2023-02-03T21:22:24.332Z,8.80
